createdAt,value
2023-05-20T00:00:39.826Z,15.43
2023-05-20T00:03:06.907Z,15.57
2023-05-20T00:05:33.764Z,18.50
2023-05-20T00:08:00.757Z,17.40
2023-05-20T00:10:27.850Z,17.58
2023-05-20T00:12:54.669Z,17.63
2023-05-20T00:15:21.460Z,17.33
2023-05-20T00:17:48.301Z,15.68
2023-05-20T00:20:15.343Z,14.77
2023-05-20T00:22:50.822Z,15.57
2023-05-20T00:28:03.747Z,15.07
2023-05-20T00:30:30.606Z,13.70
2023-05-20T00:32:57.534Z,13.70
2023-05-20T00:35:24.435Z,14.02
2023-05-20T00:37:51.253Z,13.77
2023-05-20T00:40:18.223Z,13.07
2023-05-20T00:42:45.110Z,13.38
2023-05-20T00:45:12.036Z,13.93
2023-05-20T00:47:39.443Z,15.93
2023-05-20T00:50:07.286Z,13.60
2023-05-20T00:52:34.158Z,15.55
2023-05-20T00:55:01.197Z,15.27
2023-05-20T00:57:28.022Z,14.60
2023-05-20T00:59:55.061Z,13.45
2023-05-20T01:02:22.117Z,14.55
2023-05-20T01:04:48.983Z,12.50
2023-05-20T01:07:16.510Z,14.13
2023-05-20T01:09:43.548Z,12.07
2023-05-20T01:12:18.355Z,11.10
2023-05-20T01:15:05.869Z,11.38
2023-05-20T01:17:38.028Z,11.43
2023-05-20T01:20:09.898Z,13.15
2023-05-20T01:22:55.975Z,12.77
2023-05-20T01:25:22.916Z,12.48
2023-05-20T01:27:49.721Z,14.40
2023-05-20T01:30:16.602Z,12.77
2023-05-20T01:32:47.893Z,9.38
2023-05-20T01:35:15.167Z,13.45
2023-05-20T01:37:41.972Z,14.05
2023-05-20T01:40:09.764Z,14.88
2023-05-20T01:42:36.910Z,14.77
2023-05-20T01:45:04.004Z,12.40
2023-05-20T01:47:31.360Z,12.75
2023-05-20T01:49:58.258Z,13.38
2023-05-20T01:52:25.159Z,12.98
2023-05-20T01:54:52.134Z,11.90
2023-05-20T01:57:22.202Z,13.38
2023-05-20T01:59:49.155Z,12.00
2023-05-20T02:02:16.310Z,11.57
2023-05-20T02:04:47.783Z,13.10
2023-05-20T02:07:15.658Z,11.07
2023-05-20T02:09:42.551Z,10.65
2023-05-20T02:12:10.145Z,10.18
2023-05-20T02:14:36.970Z,10.27
2023-05-20T02:17:03.876Z,10.48
2023-05-20T02:19:30.789Z,10.05
2023-05-20T02:21:57.807Z,10.93
2023-05-20T02:24:24.589Z,10.20
2023-05-20T02:26:53.782Z,11.40
2023-05-20T02:29:22.189Z,10.63
2023-05-20T02:31:49.150Z,9.60
2023-05-20T02:34:17.859Z,10.85
2023-05-20T02:36:44.742Z,8.98
2023-05-20T02:39:12.587Z,9.52
2023-05-20T02:41:39.493Z,9.15
2023-05-20T02:44:06.285Z,9.75
2023-05-20T02:46:33.368Z,10.15
2023-05-20T02:49:00.701Z,9.70
2023-05-20T02:51:27.536Z,9.05
2023-05-20T02:53:54.388Z,9.52
2023-05-20T02:56:21.579Z,11.80
2023-05-20T02:58:48.540Z,12.05
2023-05-20T03:01:15.349Z,11.70
2023-05-20T03:03:42.560Z,12.05
2023-05-20T03:06:09.357Z,14.73
2023-05-20T03:08:36.420Z,15.10
2023-05-20T03:11:04.885Z,14.27
2023-05-20T03:16:01.535Z,13.45
2023-05-20T03:18:28.435Z,14.38
2023-05-20T03:20:55.228Z,14.88
2023-05-20T03:23:22.057Z,13.68
2023-05-20T03:25:48.848Z,13.27
2023-05-20T03:28:15.844Z,12.23
2023-05-20T03:30:42.770Z,13.25
2023-05-20T03:33:09.773Z,12.75
2023-05-20T03:35:36.744Z,11.38
2023-05-20T03:38:03.726Z,12.40
2023-05-20T03:40:30.780Z,11.93
2023-05-20T03:42:57.583Z,11.65
2023-05-20T03:45:24.571Z,11.13
2023-05-20T03:47:52.116Z,11.13
2023-05-20T03:50:19.048Z,11.93
2023-05-20T03:52:45.935Z,13.55
2023-05-20T03:55:12.820Z,13.85
2023-05-20T03:57:39.881Z,13.77
2023-05-20T04:00:11.561Z,14.43
2023-05-20T04:02:38.734Z,14.40
2023-05-20T04:05:08.679Z,13.73
2023-05-20T04:07:35.969Z,14.63
2023-05-20T04:10:03.832Z,14.65
2023-05-20T04:12:32.258Z,13.93
2023-05-20T04:15:01.364Z,13.23
2023-05-20T04:19:58.298Z,11.82
2023-05-20T04:22:25.631Z,12.70
2023-05-20T04:24:52.466Z,14.48
2023-05-20T04:27:20.361Z,14.02
2023-05-20T04:29:47.519Z,13.68
2023-05-20T04:32:14.930Z,14.10
2023-05-20T04:34:41.840Z,15.15
2023-05-20T04:37:09.665Z,15.98
2023-05-20T04:39:36.540Z,14.85
2023-05-20T04:42:03.961Z,16.80
2023-05-20T04:44:30.969Z,14.00
2023-05-20T04:47:00.473Z,14.77
2023-05-20T04:49:27.300Z,15.20
2023-05-20T04:52:03.292Z,15.98
2023-05-20T04:54:30.932Z,14.55
2023-05-20T04:56:57.779Z,14.38
2023-05-20T04:59:24.844Z,14.43
2023-05-20T05:01:51.782Z,14.18
2023-05-20T05:04:18.746Z,14.88
2023-05-20T05:06:47.600Z,14.35
2023-05-20T05:09:14.405Z,13.18
2023-05-20T05:11:41.224Z,14.32
2023-05-20T05:14:08.019Z,13.05
2023-05-20T05:16:34.821Z,12.55
2023-05-20T05:19:01.767Z,12.27
2023-05-20T05:21:28.593Z,12.75
2023-05-20T05:23:56.794Z,13.27
2023-05-20T05:26:25.049Z,13.90
2023-05-20T05:28:51.948Z,13.65
2023-05-20T05:31:18.750Z,12.88
2023-05-20T05:33:45.538Z,13.02
2023-05-20T05:36:12.330Z,13.45
2023-05-20T05:38:39.153Z,12.20
2023-05-20T05:41:06.053Z,12.15
2023-05-20T05:43:32.898Z,12.85
2023-05-20T05:45:59.762Z,12.27
2023-05-20T05:48:26.556Z,12.13
2023-05-20T05:50:53.349Z,11.88
2023-05-20T05:53:20.224Z,11.57
2023-05-20T05:55:47.582Z,10.75
2023-05-20T05:58:14.467Z,12.13
2023-05-20T06:00:41.341Z,12.13
2023-05-20T06:03:08.372Z,10.75
2023-05-20T06:05:35.378Z,12.23
2023-05-20T06:11:49.960Z,12.02
2023-05-20T06:14:16.784Z,11.40
2023-05-20T06:16:43.619Z,11.00
2023-05-20T06:19:10.742Z,11.50
2023-05-20T06:21:38.611Z,11.77
2023-05-20T06:24:06.021Z,11.43
2023-05-20T06:26:32.853Z,12.38
2023-05-20T06:28:59.817Z,11.82
2023-05-20T06:31:26.733Z,11.85
2023-05-20T06:33:53.542Z,11.70
2023-05-20T06:36:20.364Z,11.88
2023-05-20T06:38:47.230Z,11.38
2023-05-20T06:41:13.999Z,11.43
2023-05-20T06:43:40.842Z,10.75
2023-05-20T06:46:07.747Z,11.32
2023-05-20T06:48:34.546Z,11.25
2023-05-20T06:51:01.533Z,10.68
2023-05-20T06:53:28.402Z,10.10
2023-05-20T06:55:58.499Z,9.98
2023-05-20T06:58:25.498Z,10.73
2023-05-20T07:00:52.419Z,10.38
2023-05-20T07:03:19.228Z,10.98
2023-05-20T07:05:46.114Z,10.13
2023-05-20T07:08:12.928Z,11.15
2023-05-20T07:10:39.737Z,9.85
2023-05-20T07:13:06.569Z,10.73
2023-05-20T07:15:33.680Z,11.05
2023-05-20T07:18:00.710Z,8.98
2023-05-20T07:20:27.620Z,10.38
2023-05-20T07:22:54.982Z,10.75
2023-05-20T07:25:21.854Z,10.57
2023-05-20T07:27:48.686Z,11.27
2023-05-20T07:30:15.555Z,10.82
2023-05-20T07:32:42.583Z,10.45
2023-05-20T07:35:09.744Z,10.80
2023-05-20T07:37:36.587Z,9.77
2023-05-20T07:40:03.853Z,10.60
2023-05-20T07:42:30.705Z,10.43
2023-05-20T07:44:57.537Z,10.43
2023-05-20T07:47:24.398Z,10.18
2023-05-20T07:49:51.252Z,10.95
2023-05-20T07:52:18.218Z,10.63
2023-05-20T07:54:45.038Z,11.18
2023-05-20T07:57:11.929Z,10.55
2023-05-20T07:59:39.127Z,10.30
2023-05-20T08:02:06.543Z,10.60
2023-05-20T08:04:33.468Z,10.40
2023-05-20T08:07:00.436Z,11.57
2023-05-20T08:09:27.297Z,10.98
2023-05-20T08:11:54.167Z,10.60
2023-05-20T08:14:21.027Z,9.63
2023-05-20T08:16:47.988Z,10.15
2023-05-20T08:19:14.957Z,10.95
2023-05-20T08:21:41.822Z,10.55
2023-05-20T08:24:08.651Z,11.30
2023-05-20T08:26:35.503Z,10.23
2023-05-20T08:29:02.343Z,11.75
2023-05-20T08:31:29.233Z,10.38
2023-05-20T08:33:56.136Z,9.80
2023-05-20T08:36:23.729Z,9.32
2023-05-20T08:38:50.554Z,9.65
2023-05-20T08:41:17.405Z,10.05
2023-05-20T08:43:44.725Z,10.20
2023-05-20T08:46:12.097Z,9.65
2023-05-20T08:48:38.973Z,10.77
2023-05-20T08:51:06.889Z,10.23
2023-05-20T08:53:33.858Z,10.52
2023-05-20T08:56:03.343Z,10.00
2023-05-20T08:58:32.688Z,10.75
2023-05-20T09:03:26.451Z,10.02
2023-05-20T09:05:54.111Z,10.20
2023-05-20T09:08:25.790Z,11.32
2023-05-20T09:10:52.713Z,10.95
2023-05-20T09:13:19.977Z,10.30
2023-05-20T09:15:47.884Z,11.40
2023-05-20T09:18:14.831Z,10.43
2023-05-20T09:20:41.731Z,9.45
2023-05-20T09:23:09.668Z,10.68
2023-05-20T09:25:37.215Z,10.20
2023-05-20T09:28:08.009Z,11.02
2023-05-20T09:30:35.001Z,10.45
2023-05-20T09:33:03.838Z,11.32
2023-05-20T09:35:30.734Z,10.98
2023-05-20T09:37:58.129Z,10.75
2023-05-20T09:40:28.929Z,10.13
2023-05-20T09:42:58.748Z,11.80
2023-05-20T09:45:25.660Z,13.20
2023-05-20T09:47:53.294Z,11.63
2023-05-20T09:50:24.551Z,12.48
2023-05-20T09:52:52.409Z,12.23
2023-05-20T09:55:20.122Z,12.85
2023-05-20T09:57:47.303Z,12.48
2023-05-20T10:00:17.247Z,12.52
2023-05-20T10:02:46.101Z,12.98
2023-05-20T10:07:57.729Z,13.93
2023-05-20T10:11:00.173Z,13.88
2023-05-20T10:14:00.171Z,12.88
2023-05-20T10:16:40.721Z,13.63
2023-05-20T10:19:27.200Z,13.57
2023-05-20T10:22:12.455Z,14.52
2023-05-20T10:24:41.388Z,15.40
2023-05-20T10:27:10.009Z,15.38
2023-05-20T10:30:15.121Z,16.45
2023-05-20T10:33:00.764Z,15.90
2023-05-20T10:35:27.959Z,15.05
2023-05-20T10:37:55.792Z,16.15
2023-05-20T10:40:23.166Z,13.85
2023-05-20T10:42:50.167Z,15.38
2023-05-20T10:45:27.951Z,15.57
2023-05-20T10:47:58.557Z,14.82
2023-05-20T10:50:29.368Z,15.98
2023-05-20T10:53:04.268Z,17.15
2023-05-20T10:55:39.475Z,15.75
2023-05-20T10:58:06.834Z,17.67
2023-05-20T11:00:37.761Z,18.20
2023-05-20T11:03:05.826Z,16.83
2023-05-20T11:05:33.170Z,17.23
2023-05-20T11:08:20.464Z,17.33
2023-05-20T11:10:56.030Z,14.70
2023-05-20T11:13:22.958Z,16.80
2023-05-20T11:15:50.248Z,16.90
2023-05-20T11:18:18.875Z,15.77
2023-05-20T11:23:14.810Z,17.63
2023-05-20T11:25:41.830Z,17.85
2023-05-20T11:28:13.845Z,17.10
2023-05-20T11:30:44.758Z,17.98
2023-05-20T11:33:15.859Z,18.95
2023-05-20T11:35:53.951Z,18.35
2023-05-20T11:38:21.717Z,18.60
2023-05-20T11:40:53.629Z,19.30
2023-05-20T11:43:21.254Z,17.60
2023-05-20T11:45:52.804Z,18.70
2023-05-20T11:48:19.754Z,20.05
2023-05-20T11:50:47.319Z,19.92
2023-05-20T11:53:18.888Z,18.50
2023-05-20T11:55:56.945Z,19.13
2023-05-20T11:58:28.176Z,17.30
2023-05-20T12:01:02.343Z,17.52
2023-05-20T12:03:36.843Z,18.02
2023-05-20T12:06:03.969Z,17.52
2023-05-20T12:08:31.241Z,17.60
2023-05-20T12:10:58.072Z,17.88
2023-05-20T12:13:24.970Z,18.38
2023-05-20T12:15:51.838Z,17.38
2023-05-20T12:18:18.641Z,17.17
2023-05-20T12:20:45.459Z,17.02
2023-05-20T12:23:12.402Z,17.35
2023-05-20T12:25:39.238Z,18.17
2023-05-20T12:28:06.900Z,17.67
2023-05-20T12:30:34.054Z,17.37
2023-05-20T12:33:02.564Z,17.17
2023-05-20T12:35:42.579Z,17.45
2023-05-20T12:38:09.760Z,18.35
2023-05-20T12:40:36.928Z,21.05
2023-05-20T12:43:04.778Z,20.20
2023-05-20T12:45:31.650Z,21.38
2023-05-20T12:47:58.811Z,20.38
2023-05-20T12:50:26.158Z,18.88
2023-05-20T12:52:53.122Z,20.95
2023-05-20T12:55:20.019Z,21.13
2023-05-20T12:57:47.279Z,21.83
2023-05-20T13:00:14.696Z,20.75
2023-05-20T13:02:42.248Z,21.42
2023-05-20T13:05:09.831Z,21.30
2023-05-20T13:07:36.900Z,22.48
2023-05-20T13:10:04.129Z,23.08
2023-05-20T13:12:31.000Z,23.75
2023-05-20T13:14:57.890Z,22.00
2023-05-20T13:17:24.839Z,23.23
2023-05-20T13:19:52.223Z,21.88
2023-05-20T13:22:19.547Z,22.33
2023-05-20T13:24:46.486Z,24.08
2023-05-20T13:27:13.765Z,22.48
2023-05-20T13:29:42.032Z,22.25
2023-05-20T13:32:08.915Z,20.52
2023-05-20T13:34:35.951Z,21.40
2023-05-20T13:37:02.853Z,20.15
2023-05-20T13:39:29.753Z,21.02
2023-05-20T13:41:56.773Z,20.35
2023-05-20T13:44:23.824Z,20.98
2023-05-20T13:46:50.747Z,19.98
2023-05-20T13:49:18.207Z,19.13
2023-05-20T13:51:46.058Z,18.77
2023-05-20T13:54:12.881Z,18.63
2023-05-20T13:56:39.752Z,14.88
2023-05-20T13:59:07.137Z,16.38
2023-05-20T14:01:34.151Z,15.55
2023-05-20T14:04:01.330Z,16.70
2023-05-20T14:06:29.556Z,14.15
2023-05-20T14:08:56.964Z,14.75
2023-05-20T14:11:24.065Z,14.27
2023-05-20T14:13:50.939Z,14.50
2023-05-20T14:16:17.797Z,13.27
2023-05-20T14:18:45.177Z,13.25
2023-05-20T14:21:12.215Z,12.63
2023-05-20T14:23:44.349Z,12.18
2023-05-20T14:26:11.593Z,10.88
2023-05-20T14:28:38.979Z,10.88
2023-05-20T14:31:08.976Z,10.05
2023-05-20T14:33:36.676Z,10.90
2023-05-20T14:36:03.864Z,11.02
2023-05-20T14:38:31.186Z,10.82
2023-05-20T14:40:58.097Z,9.38
2023-05-20T14:43:25.294Z,10.07
2023-05-20T14:45:52.852Z,10.43
2023-05-20T14:48:22.110Z,10.90
2023-05-20T14:50:49.805Z,10.70
2023-05-20T14:53:17.344Z,10.90
2023-05-20T14:55:44.242Z,11.98
2023-05-20T14:58:11.046Z,11.73
2023-05-20T15:00:38.585Z,11.85
2023-05-20T15:03:05.738Z,11.52
2023-05-20T15:05:33.041Z,11.82
2023-05-20T15:08:00.577Z,13.10
2023-05-20T15:10:27.602Z,12.02
2023-05-20T15:12:54.993Z,13.15
2023-05-20T15:15:22.146Z,12.65
2023-05-20T15:17:49.260Z,14.43
2023-05-20T15:20:16.390Z,14.05
2023-05-20T15:22:45.817Z,12.80
2023-05-20T15:25:12.833Z,13.55
2023-05-20T15:27:41.589Z,13.82
2023-05-20T15:32:36.012Z,15.13
2023-05-20T15:35:04.122Z,13.70
2023-05-20T15:37:31.071Z,15.50
2023-05-20T15:39:57.949Z,14.75
2023-05-20T15:42:25.038Z,15.82
2023-05-20T15:44:51.991Z,15.98
2023-05-20T15:47:19.050Z,15.82
2023-05-20T15:49:46.040Z,16.27
2023-05-20T15:52:14.192Z,16.63
2023-05-20T15:54:41.268Z,16.00
2023-05-20T15:57:08.222Z,17.25
2023-05-20T15:59:35.401Z,17.83
2023-05-20T16:02:02.398Z,19.23
2023-05-20T16:04:29.685Z,18.00
2023-05-20T16:06:56.764Z,17.65
2023-05-20T16:09:23.684Z,18.00
2023-05-20T16:11:50.668Z,18.42
2023-05-20T16:14:17.555Z,17.40
2023-05-20T16:16:44.640Z,17.48
2023-05-20T16:19:11.661Z,19.17
2023-05-20T16:21:38.790Z,18.15
2023-05-20T16:24:05.988Z,20.42
2023-05-20T16:26:32.815Z,19.70
2023-05-20T16:28:59.718Z,18.73
2023-05-20T16:31:26.825Z,19.65
2023-05-20T16:33:53.763Z,18.77
2023-05-20T16:36:21.686Z,18.05
2023-05-20T16:38:48.511Z,18.52
2023-05-20T16:41:16.382Z,20.17
2023-05-20T16:43:43.567Z,19.38
2023-05-20T16:46:12.531Z,21.15
2023-05-20T16:48:39.619Z,21.35
2023-05-20T16:51:06.924Z,23.40
2023-05-20T16:53:34.017Z,25.33
2023-05-20T16:56:01.024Z,25.73
2023-05-20T16:58:28.027Z,22.35
2023-05-20T17:00:55.361Z,20.15
2023-05-20T17:03:22.440Z,19.23
2023-05-20T17:05:49.309Z,18.80
2023-05-20T17:08:16.481Z,19.35
2023-05-20T17:10:43.300Z,22.05
2023-05-20T17:13:10.581Z,20.55
2023-05-20T17:15:37.474Z,20.88
2023-05-20T17:18:04.486Z,19.10
2023-05-20T17:20:31.648Z,21.30
2023-05-20T17:22:58.739Z,21.45
2023-05-20T17:25:25.596Z,26.65
2023-05-20T17:27:52.450Z,23.40
2023-05-20T17:30:19.265Z,21.25
2023-05-20T17:32:46.191Z,21.77
2023-05-20T17:35:13.032Z,21.55
2023-05-20T17:37:39.858Z,21.45
2023-05-20T17:40:07.174Z,22.13
2023-05-20T17:42:34.090Z,21.65
2023-05-20T17:45:00.915Z,20.02
2023-05-20T17:47:27.798Z,18.95
2023-05-20T17:49:54.664Z,18.83
2023-05-20T17:52:21.486Z,20.25
2023-05-20T17:54:48.408Z,20.08
2023-05-20T17:57:15.576Z,24.75
2023-05-20T17:59:45.336Z,32.85
2023-05-20T18:02:12.648Z,48.28
2023-05-20T18:04:42.457Z,49.55
2023-05-20T18:07:09.305Z,41.25
2023-05-20T18:09:36.153Z,47.75
2023-05-20T18:12:02.993Z,45.95
2023-05-20T18:14:29.870Z,45.58
2023-05-20T18:16:57.577Z,44.60
2023-05-20T18:19:25.120Z,38.15
2023-05-20T18:21:52.173Z,29.88
2023-05-20T18:24:20.503Z,25.27
2023-05-20T18:26:47.597Z,22.10
2023-05-20T18:29:14.452Z,21.77
2023-05-20T18:31:43.366Z,21.90
2023-05-20T18:34:10.848Z,20.77
2023-05-20T18:36:38.254Z,20.25
2023-05-20T18:39:05.145Z,23.70
2023-05-20T18:41:46.117Z,26.98
2023-05-20T18:44:15.002Z,27.98
2023-05-20T18:46:41.958Z,28.48
2023-05-20T18:49:10.627Z,23.80
2023-05-20T18:51:38.434Z,22.25
2023-05-20T18:54:05.265Z,22.35
2023-05-20T18:56:32.571Z,23.05
2023-05-20T18:58:59.818Z,23.92
2023-05-20T19:01:27.165Z,24.40
2023-05-20T19:03:54.215Z,23.77
2023-05-20T19:06:22.022Z,22.95
2023-05-20T19:08:49.593Z,22.58
2023-05-20T19:11:16.518Z,23.75
2023-05-20T19:13:43.422Z,24.13
2023-05-20T19:16:10.324Z,23.75
2023-05-20T19:18:37.460Z,23.65
2023-05-20T19:21:04.608Z,26.10
2023-05-20T19:23:32.457Z,24.48
2023-05-20T19:25:59.350Z,24.40
2023-05-20T19:28:26.304Z,26.48
2023-05-20T19:30:53.581Z,28.02
2023-05-20T19:33:20.978Z,25.85
2023-05-20T19:35:48.006Z,24.42
2023-05-20T19:38:14.882Z,26.65
2023-05-20T19:40:42.858Z,24.85
2023-05-20T19:43:09.669Z,24.10
2023-05-20T19:45:39.217Z,24.80
2023-05-20T19:48:06.708Z,25.90
2023-05-20T19:50:34.232Z,26.02
2023-05-20T19:53:03.304Z,26.75
2023-05-20T19:58:00.815Z,26.13
2023-05-20T20:00:27.639Z,26.95
2023-05-20T20:02:54.751Z,26.77
2023-05-20T20:05:23.725Z,25.05
2023-05-20T20:07:50.810Z,26.55
2023-05-20T20:10:17.669Z,24.10
2023-05-20T20:12:44.455Z,24.25
2023-05-20T20:15:12.570Z,26.02
2023-05-20T20:17:46.057Z,23.70
2023-05-20T20:20:15.812Z,23.38
2023-05-20T20:22:42.612Z,23.42
2023-05-20T20:25:09.538Z,25.13
2023-05-20T20:27:36.367Z,22.92
2023-05-20T20:30:03.344Z,24.10
2023-05-20T20:32:30.281Z,23.02
2023-05-20T20:34:58.128Z,23.77
2023-05-20T20:37:26.877Z,26.35
2023-05-20T20:39:54.658Z,24.52
2023-05-20T20:42:24.392Z,25.75
2023-05-20T20:44:54.057Z,26.40
2023-05-20T20:47:20.882Z,25.50
2023-05-20T20:49:47.855Z,26.83
2023-05-20T20:52:14.693Z,25.85
2023-05-20T20:54:43.366Z,26.13
2023-05-20T20:57:11.672Z,25.60
2023-05-20T20:59:38.551Z,25.97
2023-05-20T21:02:06.688Z,25.05
2023-05-20T21:04:33.724Z,24.50
2023-05-20T21:07:02.022Z,26.02
2023-05-20T21:09:29.324Z,24.50
2023-05-20T21:11:57.261Z,25.10
2023-05-20T21:14:25.326Z,26.42
2023-05-20T21:16:52.386Z,27.27
2023-05-20T21:19:19.385Z,26.23
2023-05-20T21:21:46.557Z,27.50
2023-05-20T21:24:13.515Z,26.40
2023-05-20T21:26:40.489Z,24.75
2023-05-20T21:29:07.556Z,23.17
2023-05-20T21:31:34.500Z,24.30
2023-05-20T21:34:03.057Z,24.85
2023-05-20T21:36:29.867Z,24.17
2023-05-20T21:38:56.771Z,23.20
2023-05-20T21:41:24.503Z,24.52
2023-05-20T21:43:51.547Z,23.27
2023-05-20T21:46:18.403Z,24.83
2023-05-20T21:48:45.449Z,30.42
2023-05-20T21:51:12.266Z,26.17
2023-05-20T21:53:39.061Z,23.63
2023-05-20T21:56:06.036Z,24.20
2023-05-20T21:58:33.403Z,23.63
2023-05-20T22:01:00.268Z,23.42
2023-05-20T22:03:28.531Z,26.95
2023-05-20T22:05:55.481Z,26.73
2023-05-20T22:08:22.371Z,25.55
2023-05-20T22:10:49.198Z,24.08
2023-05-20T22:13:17.319Z,24.15
2023-05-20T22:15:44.247Z,23.42
2023-05-20T22:18:12.419Z,24.67
2023-05-20T22:20:40.794Z,23.27
2023-05-20T22:23:07.803Z,25.00
2023-05-20T22:25:36.377Z,23.25
2023-05-20T22:28:04.609Z,22.95
2023-05-20T22:30:31.634Z,23.60
2023-05-20T22:32:58.602Z,21.77
2023-05-20T22:35:25.516Z,22.60
2023-05-20T22:37:54.876Z,23.73
2023-05-20T22:40:21.814Z,22.35
2023-05-20T22:42:48.705Z,22.30
2023-05-20T22:45:15.602Z,21.33
2023-05-20T22:47:42.681Z,22.13
2023-05-20T22:50:09.680Z,23.23
2023-05-20T22:52:36.959Z,22.35
2023-05-20T22:55:04.133Z,22.35
2023-05-20T22:57:31.004Z,22.40
2023-05-20T22:59:57.803Z,22.58
2023-05-20T23:02:24.751Z,22.92
2023-05-20T23:04:51.748Z,22.95
2023-05-20T23:07:19.531Z,21.73
2023-05-20T23:09:49.481Z,21.35
2023-05-20T23:12:16.389Z,21.55
2023-05-20T23:14:43.200Z,21.42
2023-05-20T23:17:10.088Z,21.70
2023-05-20T23:19:36.899Z,21.77
2023-05-20T23:22:03.864Z,20.63
2023-05-20T23:24:30.914Z,24.25
2023-05-20T23:26:59.302Z,23.30
2023-05-20T23:29:27.081Z,23.25
2023-05-20T23:31:53.942Z,24.83
2023-05-20T23:34:21.421Z,24.60
2023-05-20T23:36:48.287Z,24.63
2023-05-20T23:39:17.432Z,22.00
2023-05-20T23:41:45.487Z,21.35
2023-05-20T23:44:12.674Z,19.67
2023-05-20T23:46:39.665Z,21.27
2023-05-20T23:49:06.817Z,21.65
2023-05-20T23:51:35.519Z,18.60
2023-05-20T23:54:02.302Z,22.08
2023-05-20T23:56:29.129Z,20.88
2023-05-20T23:58:57.741Z,21.58
